B.franklin Reinauer — WDG4684 — position and weather

sailwx.info

Track history (hours):
 
Tides and Currents Weather Stations Pressure Air Temp Water Temp Dewpoint Dewpoint Depression Visibility Wind Speed Wind Dir Waves Ship Positions

B.franklin Reinauer

Owner: Reinauer Transportation Co.,LLC., STATEN ISLAND, NY. More information available from US FCC via Universal Licensing System and Coast Guard Vessel Documentation Center.

Last reported at 2017-Dec-16 06:59 UTC. Time now 2017-Dec-16 07:02 UTC.
Position N 40°39' W 074°02'.

Length 132 m; draft 6.5 m.

Type: . MMSI: 367539090.

Date/timePositionNaut miles runAvg speedWind from/ knotsBaromVisibWave heightAir tempDewpointWater temp
2017-Dec-16 06:59N 40°39' W 074°02'0 0.0
2017-Dec-16 06:29N 40°39' W 074°02'0 0.1
2017-Dec-16 05:59N 40°39' W 074°02'0 0.0
2017-Dec-16 05:29N 40°39' W 074°02'0 0.1
2017-Dec-16 04:59N 40°39' W 074°02'0 0.1
2017-Dec-16 04:29N 40°39' W 074°02'0 0.0
2017-Dec-16 03:59N 40°39' W 074°02'0 0.0
2017-Dec-16 03:29N 40°39' W 074°02'0 0.0
2017-Dec-16 02:59N 40°39' W 074°02'0 0.1
2017-Dec-16 02:29N 40°39' W 074°02'0 0.0
2017-Dec-16 01:59N 40°39' W 074°02'0 0.0
2017-Dec-16 01:29N 40°39' W 074°02'0 0.1
2017-Dec-16 00:59N 40°39' W 074°02'0 0.1
2017-Dec-16 00:29N 40°40' W 074°02'0 0.0
2017-Dec-15 23:59N 40°40' W 074°02'0 0.0
2017-Dec-15 23:30N 40°40' W 074°02'0 0.4
2017-Dec-15 23:00N 40°39' W 074°02'3 6.1
2017-Dec-15 22:28N 40°39' W 074°07'0 0.0
2017-Dec-15 21:59N 40°39' W 074°07'0 0.0
2017-Dec-15 21:30N 40°39' W 074°07'0 0.0
2017-Dec-15 21:00N 40°39' W 074°07'0 0.0
2017-Dec-15 20:31N 40°39' W 074°07'0 0.0
2017-Dec-15 20:00N 40°39' W 074°07'0 0.0
2017-Dec-15 19:31N 40°39' W 074°07'1 1.6
2017-Dec-15 18:54N 40°38' W 074°08'0 0.0
2017-Dec-15 18:31N 40°38' W 074°08'0 0.0
2017-Dec-15 18:01N 40°38' W 074°08'0 0.0
2017-Dec-15 17:31N 40°38' W 074°08'0 0.0
2017-Dec-15 17:00N 40°38' W 074°08'0 0.0
2017-Dec-15 16:30N 40°38' W 074°08'0 0.0
2017-Dec-15 16:00N 40°38' W 074°08'0 0.0
2017-Dec-15 15:31N 40°38' W 074°08'0 0.0
2017-Dec-15 15:00N 40°38' W 074°08'0 0.0
2017-Dec-15 14:31N 40°38' W 074°08'0 0.0
2017-Dec-15 14:01N 40°38' W 074°08'3 5.4
2017-Dec-15 13:31N 40°39' W 074°04'2 3.2
2017-Dec-15 13:00N 40°40' W 074°02'0 0.0
2017-Dec-15 12:30N 40°40' W 074°02'0 0.0
2017-Dec-15 12:00N 40°40' W 074°02'0 0.0
2017-Dec-15 11:30N 40°40' W 074°02'0 0.1
2017-Dec-15 11:00N 40°40' W 074°02'0 0.0
2017-Dec-15 10:30N 40°40' W 074°02'0 0.0
2017-Dec-15 10:00N 40°40' W 074°02'0 0.0
2017-Dec-15 09:30N 40°40' W 074°02'0 0.1
2017-Dec-15 09:00N 40°40' W 074°02'0 0.2
2017-Dec-15 08:30N 40°39' W 074°02'0 0.1
2017-Dec-15 08:00N 40°39' W 074°02'0 0.0
2017-Dec-15 07:30N 40°39' W 074°02'0 0.0
2017-Dec-15 07:00N 40°39' W 074°02'0 0.1
2017-Dec-15 06:30N 40°39' W 074°02'0 0.0
2017-Dec-15 06:00N 40°39' W 074°02'0 0.0
2017-Dec-15 05:30N 40°39' W 074°02'0 0.0
2017-Dec-15 05:00N 40°39' W 074°02'0 0.0
2017-Dec-15 04:30N 40°39' W 074°02'0 0.0
2017-Dec-15 04:00N 40°39' W 074°02'0 0.0
2017-Dec-15 02:30N 40°39' W 074°02'0 0.0
2017-Dec-15 01:00N 40°39' W 074°02'0 0.0
2017-Dec-15 00:30N 40°39' W 074°02'22 3.7
2017-Dec-14 18:30N 40°54' W 073°40'4 0.1
2017-Dec-13 12:01N 40°52' W 073°45'1 9.0
2017-Dec-13 11:55N 40°51' W 073°45'3 8.4
2017-Dec-13 11:30N 40°48' W 073°47'5 9.0
2017-Dec-13 11:00N 40°48' W 073°53'4 8.6
2017-Dec-13 10:30N 40°45' W 073°58'4 8.9
2017-Dec-13 10:00N 40°42' W 074°00'4 8.0
2017-Dec-13 09:30N 40°38' W 074°03'0 0.5
2017-Dec-13 09:00N 40°38' W 074°03'0 0.7
2017-Dec-13 08:30N 40°38' W 074°03'1 1.5
2017-Dec-13 08:00N 40°38' W 074°04'0 0.6
2017-Dec-13 07:30N 40°38' W 074°04'2 3.8
2017-Dec-13 07:00N 40°39' W 074°06'4 7.5
2017-Dec-13 06:30N 40°39' W 074°11'3 5.8
2017-Dec-13 06:00N 40°36' W 074°12'3 6.7
2017-Dec-13 05:29N 40°33' W 074°15'1 1.1
2017-Dec-13 04:52N 40°33' W 074°15'0 0.0
2017-Dec-13 04:28N 40°33' W 074°15'0 0.0
2017-Dec-13 03:58N 40°33' W 074°15'0 0.0
2017-Dec-13 03:29N 40°33' W 074°15'0 0.0
2017-Dec-12 20:49N 40°33' W 074°15'0 0.0
2017-Dec-12 17:18N 40°33' W 074°15'0 0.0
2017-Dec-12 16:05N 40°33' W 074°15'0 0.1
2017-Dec-12 16:00N 40°33' W 074°15'0 0.0
2017-Dec-12 15:29N 40°33' W 074°15'0 0.0
2017-Dec-12 14:47N 40°33' W 074°15'0 0.0
2017-Dec-12 14:17N 40°33' W 074°15'0 0.0
2017-Dec-12 13:59N 40°33' W 074°15'0 0.0
2017-Dec-12 13:29N 40°33' W 074°15'0 0.0
2017-Dec-12 12:54N 40°33' W 074°15'0 0.0
2017-Dec-12 12:30N 40°33' W 074°15'0 0.0
2017-Dec-12 11:43N 40°33' W 074°15'0 0.0
2017-Dec-12 11:27N 40°33' W 074°15'0 0.0
2017-Dec-12 10:35N 40°33' W 074°15'0 0.0
2017-Dec-12 10:28N 40°33' W 074°15'0 0.0
2017-Dec-12 09:58N 40°33' W 074°15'0 0.0
2017-Dec-12 09:29N 40°33' W 074°15'0 0.0
2017-Dec-12 09:01N 40°33' W 074°15'0 0.0
2017-Dec-12 08:27N 40°33' W 074°15'0 0.0
2017-Dec-12 08:01N 40°33' W 074°15'0 0.0
2017-Dec-12 07:30N 40°33' W 074°15'0 0.0
2017-Dec-12 05:32N 40°33' W 074°15'0 0.1
2017-Dec-12 05:27N 40°33' W 074°15'0 0.0
2017-Dec-12 04:57N 40°33' W 074°15'0 0.0
2017-Dec-12 04:29N 40°33' W 074°15'0 0.0
2017-Dec-12 04:00N 40°33' W 074°15'0 0.8
2017-Dec-12 03:30N 40°33' W 074°15'4 7.9
2017-Dec-12 03:00N 40°36' W 074°12'4 7.1
2017-Dec-12 02:30N 40°39' W 074°09'5 9.1
2017-Dec-12 02:01N 40°40' W 074°03'611.1
2017-Dec-12 01:30N 40°44' W 073°58'611.0
2017-Dec-12 01:00N 40°48' W 073°53'5 9.3
2017-Dec-12 00:30N 40°49' W 073°47'510.0
2017-Dec-11 23:59N 40°53' W 073°43'4910.3
2017-Dec-11 19:16N 41°07' W 072°41'310.7
2017-Dec-11 19:00N 41°07' W 072°37'510.8
2017-Dec-11 18:30N 41°08' W 072°30'510.4
2017-Dec-11 18:00N 41°10' W 072°24'5 9.9
2017-Dec-11 17:30N 41°11' W 072°17'5 9.1
2017-Dec-11 16:57N 41°13' W 072°11'44 8.2
2017-Dec-11 11:36N 41°34' W 071°19'410.4
2017-Dec-11 11:12N 41°38' W 071°18'210.4
2017-Dec-11 11:00N 41°40' W 071°19'5 9.6
2017-Dec-11 10:30N 41°44' W 071°22'5 9.0
2017-Dec-11 10:00N 41°48' W 071°24'0 0.3
2017-Dec-11 09:30N 41°48' W 071°24'0 0.0
2017-Dec-10 17:45N 41°48' W 071°24'1 5.3
2017-Dec-10 17:30N 41°47' W 071°23'4 8.6
2017-Dec-10 17:00N 41°43' W 071°21'4 8.7
2017-Dec-10 16:30N 41°39' W 071°19'5 9.3
2017-Dec-10 16:00N 41°34' W 071°19'42 8.6
2017-Dec-10 11:11N 41°14' W 072°07'211.0
2017-Dec-10 11:01N 41°13' W 072°09'510.8
2017-Dec-10 10:31N 41°12' W 072°16'510.2
2017-Dec-10 10:01N 41°10' W 072°23'5 9.5
2017-Dec-10 09:31N 41°09' W 072°29'4 8.7
2017-Dec-10 09:01N 41°08' W 072°34'55 9.0
2017-Dec-10 02:54N 40°52' W 073°44'4 9.4
2017-Dec-10 02:30N 40°49' W 073°47'4 7.5
2017-Dec-10 01:59N 40°48' W 073°52'3 7.3
2017-Dec-10 01:31N 40°47' W 073°56'3 6.7
2017-Dec-10 01:01N 40°44' W 073°58'3 6.8
2017-Dec-10 00:31N 40°41' W 074°01'4 7.7
2017-Dec-10 00:01N 40°39' W 074°05'4 8.5
2017-Dec-09 23:30N 40°39' W 074°11'3 6.0
2017-Dec-09 23:00N 40°36' W 074°12'3 7.0
2017-Dec-09 22:30N 40°33' W 074°15'1 1.4
2017-Dec-09 22:00N 40°33' W 074°15'0 0.0
2017-Dec-09 21:30N 40°33' W 074°15'0 0.0
2017-Dec-09 21:00N 40°33' W 074°15'0 0.0
2017-Dec-09 20:30N 40°33' W 074°15'0 0.0
2017-Dec-09 17:54N 40°33' W 074°15'0 0.0
2017-Dec-09 17:29N 40°33' W 074°15'0 0.0
2017-Dec-09 17:00N 40°33' W 074°15'0 0.0
2017-Dec-09 15:36N 40°33' W 074°15'0 0.0
2017-Dec-09 15:30N 40°33' W 074°15'0 0.0
2017-Dec-09 14:58N 40°33' W 074°15'0 0.0
2017-Dec-09 14:30N 40°33' W 074°15'0 0.0
2017-Dec-09 13:54N 40°33' W 074°15'0 0.0
2017-Dec-09 13:28N 40°33' W 074°15'0 0.0
2017-Dec-09 11:16N 40°33' W 074°15'0 0.0
2017-Dec-09 10:57N 40°33' W 074°15'0 0.0
2017-Dec-09 09:21N 40°33' W 074°15'0 0.0
2017-Dec-09 09:00N 40°33' W 074°15'0 0.0
2017-Dec-09 08:29N 40°33' W 074°15'0 0.0
2017-Dec-09 08:00N 40°33' W 074°15'0 0.0
2017-Dec-09 06:13N 40°33' W 074°15'0 0.0
2017-Dec-09 06:00N 40°33' W 074°15'0 0.0
2017-Dec-09 05:30N 40°33' W 074°15'0 0.2
2017-Dec-09 05:00N 40°33' W 074°15'2 4.7
2017-Dec-09 04:28N 40°34' W 074°13'2 4.9
2017-Dec-09 04:00N 40°37' W 074°12'3 5.2
2017-Dec-09 03:30N 40°39' W 074°11'5 9.5
2017-Dec-09 03:01N 40°39' W 074°04'2 4.5
2017-Dec-09 02:31N 40°40' W 074°02'0 0.1
2017-Dec-09 02:00N 40°40' W 074°02'0 0.0
2017-Dec-09 01:30N 40°40' W 074°02'0 0.1
2017-Dec-09 01:00N 40°40' W 074°02'0 0.0
2017-Dec-09 00:30N 40°40' W 074°02'0 0.1
2017-Dec-09 00:00N 40°40' W 074°02'0 0.0
2017-Dec-08 23:30N 40°40' W 074°02'0 0.0
2017-Dec-08 23:00N 40°40' W 074°02'0 0.0
2017-Dec-08 22:30N 40°40' W 074°02'0 0.0
2017-Dec-08 22:00N 40°40' W 074°02'0 0.0
2017-Dec-08 21:27N 40°40' W 074°02'0 0.0
2017-Dec-08 21:00N 40°40' W 074°02'0 0.0
2017-Dec-08 20:30N 40°40' W 074°02'0 0.5
2017-Dec-08 20:00N 40°40' W 074°02'4 8.8
2017-Dec-08 19:30N 40°38' W 074°08'0 0.0
2017-Dec-08 19:00N 40°38' W 074°08'0 0.0
2017-Dec-08 18:30N 40°38' W 074°08'1 2.5
2017-Dec-08 18:00N 40°39' W 074°06'4 6.7
2017-Dec-08 17:28N 40°40' W 074°02'0 0.0
2017-Dec-08 16:55N 40°40' W 074°02'0 0.0
2017-Dec-08 16:28N 40°40' W 074°02'0 0.9
2017-Dec-08 16:00N 40°40' W 074°01'0 0.6
2017-Dec-08 15:30N 40°40' W 074°01'0 0.1
2017-Dec-08 14:59N 40°40' W 074°01'0 0.0
2017-Dec-08 14:29N 40°40' W 074°01'0 0.0
2017-Dec-08 13:59N 40°40' W 074°01'0 0.0
2017-Dec-08 13:29N 40°40' W 074°01'1 1.2
2017-Dec-08 12:58N 40°40' W 074°02'0 0.1
2017-Dec-08 12:28N 40°40' W 074°02'0 0.1
2017-Dec-08 11:58N 40°40' W 074°02'0 0.1
2017-Dec-08 11:28N 40°40' W 074°02'0 0.0
2017-Dec-08 10:58N 40°40' W 074°02'0 0.0
2017-Dec-08 10:28N 40°40' W 074°02'0 0.0
2017-Dec-08 09:58N 40°40' W 074°02'0 0.0
2017-Dec-08 09:28N 40°40' W 074°02'0 0.0
2017-Dec-08 08:58N 40°40' W 074°02'0 0.0
2017-Dec-08 08:28N 40°40' W 074°02'0 0.0
2017-Dec-08 07:58N 40°40' W 074°02'0 0.0
2017-Dec-08 07:28N 40°40' W 074°02'0 0.1
2017-Dec-08 06:58N 40°40' W 074°02'0 0.3
2017-Dec-08 06:28N 40°40' W 074°02'1 1.4
2017-Dec-08 06:00N 40°41' W 074°01'4 7.8
2017-Dec-08 05:30N 40°44' W 073°58'3 6.7
2017-Dec-08 04:59N 40°47' W 073°56'3 6.9
2017-Dec-08 04:30N 40°48' W 073°52'4 7.4
2017-Dec-08 04:01N 40°49' W 073°47'5 9.2
2017-Dec-08 03:30N 40°53' W 073°43'43 1.9
2017-Dec-07 04:20N 41°12' W 072°52'6 0.8
2017-Dec-06 21:24N 41°11' W 072°45'3 8.0
2017-Dec-06 21:00N 41°11' W 072°40'  
Track history (hours):
 
Tides and Currents Weather Stations Pressure Air Temp Water Temp Dewpoint Dewpoint Depression Visibility Wind Speed Wind Dir Waves Ship Positions

B.franklin Reinauer

Owner: Reinauer Transportation Co.,LLC., STATEN ISLAND, NY. More information available from US FCC via Universal Licensing System and Coast Guard Vessel Documentation Center.

Last reported at 2017-Dec-16 06:59 UTC. Time now 2017-Dec-16 07:02 UTC.
Position N 40°39' W 074°02'.

Length 132 m; draft 6.5 m.

Type: . MMSI: 367539090.

Date/timePositionNaut miles runAvg speedWind from/ knotsBaromVisibWave heightAir tempDewpointWater temp
2017-Dec-16 06:59N 40°39' W 074°02'0 0.0
2017-Dec-16 06:29N 40°39' W 074°02'0 0.1
2017-Dec-16 05:59N 40°39' W 074°02'0 0.0
2017-Dec-16 05:29N 40°39' W 074°02'0 0.1
2017-Dec-16 04:59N 40°39' W 074°02'0 0.1
2017-Dec-16 04:29N 40°39' W 074°02'0 0.0
2017-Dec-16 03:59N 40°39' W 074°02'0 0.0
2017-Dec-16 03:29N 40°39' W 074°02'0 0.0
2017-Dec-16 02:59N 40°39' W 074°02'0 0.1
2017-Dec-16 02:29N 40°39' W 074°02'0 0.0
2017-Dec-16 01:59N 40°39' W 074°02'0 0.0
2017-Dec-16 01:29N 40°39' W 074°02'0 0.1
2017-Dec-16 00:59N 40°39' W 074°02'0 0.1
2017-Dec-16 00:29N 40°40' W 074°02'0 0.0
2017-Dec-15 23:59N 40°40' W 074°02'0 0.0
2017-Dec-15 23:30N 40°40' W 074°02'0 0.4
2017-Dec-15 23:00N 40°39' W 074°02'3 6.1
2017-Dec-15 22:28N 40°39' W 074°07'0 0.0
2017-Dec-15 21:59N 40°39' W 074°07'0 0.0
2017-Dec-15 21:30N 40°39' W 074°07'0 0.0
2017-Dec-15 21:00N 40°39' W 074°07'0 0.0
2017-Dec-15 20:31N 40°39' W 074°07'0 0.0
2017-Dec-15 20:00N 40°39' W 074°07'0 0.0
2017-Dec-15 19:31N 40°39' W 074°07'1 1.6
2017-Dec-15 18:54N 40°38' W 074°08'0 0.0
2017-Dec-15 18:31N 40°38' W 074°08'0 0.0
2017-Dec-15 18:01N 40°38' W 074°08'0 0.0
2017-Dec-15 17:31N 40°38' W 074°08'0 0.0
2017-Dec-15 17:00N 40°38' W 074°08'0 0.0
2017-Dec-15 16:30N 40°38' W 074°08'0 0.0
2017-Dec-15 16:00N 40°38' W 074°08'0 0.0
2017-Dec-15 15:31N 40°38' W 074°08'0 0.0
2017-Dec-15 15:00N 40°38' W 074°08'0 0.0
2017-Dec-15 14:31N 40°38' W 074°08'0 0.0
2017-Dec-15 14:01N 40°38' W 074°08'3 5.4
2017-Dec-15 13:31N 40°39' W 074°04'2 3.2
2017-Dec-15 13:00N 40°40' W 074°02'0 0.0
2017-Dec-15 12:30N 40°40' W 074°02'0 0.0
2017-Dec-15 12:00N 40°40' W 074°02'0 0.0
2017-Dec-15 11:30N 40°40' W 074°02'0 0.1
2017-Dec-15 11:00N 40°40' W 074°02'0 0.0
2017-Dec-15 10:30N 40°40' W 074°02'0 0.0
2017-Dec-15 10:00N 40°40' W 074°02'0 0.0
2017-Dec-15 09:30N 40°40' W 074°02'0 0.1
2017-Dec-15 09:00N 40°40' W 074°02'0 0.2
2017-Dec-15 08:30N 40°39' W 074°02'0 0.1
2017-Dec-15 08:00N 40°39' W 074°02'0 0.0
2017-Dec-15 07:30N 40°39' W 074°02'0 0.0
2017-Dec-15 07:00N 40°39' W 074°02'0 0.1
2017-Dec-15 06:30N 40°39' W 074°02'0 0.0
2017-Dec-15 06:00N 40°39' W 074°02'0 0.0
2017-Dec-15 05:30N 40°39' W 074°02'0 0.0
2017-Dec-15 05:00N 40°39' W 074°02'0 0.0
2017-Dec-15 04:30N 40°39' W 074°02'0 0.0
2017-Dec-15 04:00N 40°39' W 074°02'0 0.0
2017-Dec-15 02:30N 40°39' W 074°02'0 0.0
2017-Dec-15 01:00N 40°39' W 074°02'0 0.0
2017-Dec-15 00:30N 40°39' W 074°02'22 3.7
2017-Dec-14 18:30N 40°54' W 073°40'4 0.1
2017-Dec-13 12:01N 40°52' W 073°45'1 9.0
2017-Dec-13 11:55N 40°51' W 073°45'3 8.4
2017-Dec-13 11:30N 40°48' W 073°47'5 9.0
2017-Dec-13 11:00N 40°48' W 073°53'4 8.6
2017-Dec-13 10:30N 40°45' W 073°58'4 8.9
2017-Dec-13 10:00N 40°42' W 074°00'4 8.0
2017-Dec-13 09:30N 40°38' W 074°03'0 0.5
2017-Dec-13 09:00N 40°38' W 074°03'0 0.7
2017-Dec-13 08:30N 40°38' W 074°03'1 1.5
2017-Dec-13 08:00N 40°38' W 074°04'0 0.6
2017-Dec-13 07:30N 40°38' W 074°04'2 3.8
2017-Dec-13 07:00N 40°39' W 074°06'4 7.5
2017-Dec-13 06:30N 40°39' W 074°11'3 5.8
2017-Dec-13 06:00N 40°36' W 074°12'3 6.7
2017-Dec-13 05:29N 40°33' W 074°15'1 1.1
2017-Dec-13 04:52N 40°33' W 074°15'0 0.0
2017-Dec-13 04:28N 40°33' W 074°15'0 0.0
2017-Dec-13 03:58N 40°33' W 074°15'0 0.0
2017-Dec-13 03:29N 40°33' W 074°15'0 0.0
2017-Dec-12 20:49N 40°33' W 074°15'0 0.0
2017-Dec-12 17:18N 40°33' W 074°15'0 0.0
2017-Dec-12 16:05N 40°33' W 074°15'0 0.1
2017-Dec-12 16:00N 40°33' W 074°15'0 0.0
2017-Dec-12 15:29N 40°33' W 074°15'0 0.0
2017-Dec-12 14:47N 40°33' W 074°15'0 0.0
2017-Dec-12 14:17N 40°33' W 074°15'0 0.0
2017-Dec-12 13:59N 40°33' W 074°15'0 0.0
2017-Dec-12 13:29N 40°33' W 074°15'0 0.0
2017-Dec-12 12:54N 40°33' W 074°15'0 0.0
2017-Dec-12 12:30N 40°33' W 074°15'0 0.0
2017-Dec-12 11:43N 40°33' W 074°15'0 0.0
2017-Dec-12 11:27N 40°33' W 074°15'0 0.0
2017-Dec-12 10:35N 40°33' W 074°15'0 0.0
2017-Dec-12 10:28N 40°33' W 074°15'0 0.0
2017-Dec-12 09:58N 40°33' W 074°15'0 0.0
2017-Dec-12 09:29N 40°33' W 074°15'0 0.0
2017-Dec-12 09:01N 40°33' W 074°15'0 0.0
2017-Dec-12 08:27N 40°33' W 074°15'0 0.0
2017-Dec-12 08:01N 40°33' W 074°15'0 0.0
2017-Dec-12 07:30N 40°33' W 074°15'0 0.0
2017-Dec-12 05:32N 40°33' W 074°15'0 0.1
2017-Dec-12 05:27N 40°33' W 074°15'0 0.0
2017-Dec-12 04:57N 40°33' W 074°15'0 0.0
2017-Dec-12 04:29N 40°33' W 074°15'0 0.0
2017-Dec-12 04:00N 40°33' W 074°15'0 0.8
2017-Dec-12 03:30N 40°33' W 074°15'4 7.9
2017-Dec-12 03:00N 40°36' W 074°12'4 7.1
2017-Dec-12 02:30N 40°39' W 074°09'5 9.1
2017-Dec-12 02:01N 40°40' W 074°03'611.1
2017-Dec-12 01:30N 40°44' W 073°58'611.0
2017-Dec-12 01:00N 40°48' W 073°53'5 9.3
2017-Dec-12 00:30N 40°49' W 073°47'510.0
2017-Dec-11 23:59N 40°53' W 073°43'4910.3
2017-Dec-11 19:16N 41°07' W 072°41'310.7
2017-Dec-11 19:00N 41°07' W 072°37'510.8
2017-Dec-11 18:30N 41°08' W 072°30'510.4
2017-Dec-11 18:00N 41°10' W 072°24'5 9.9
2017-Dec-11 17:30N 41°11' W 072°17'5 9.1
2017-Dec-11 16:57N 41°13' W 072°11'44 8.2
2017-Dec-11 11:36N 41°34' W 071°19'410.4
2017-Dec-11 11:12N 41°38' W 071°18'210.4
2017-Dec-11 11:00N 41°40' W 071°19'5 9.6
2017-Dec-11 10:30N 41°44' W 071°22'5 9.0
2017-Dec-11 10:00N 41°48' W 071°24'0 0.3
2017-Dec-11 09:30N 41°48' W 071°24'0 0.0
2017-Dec-10 17:45N 41°48' W 071°24'1 5.3
2017-Dec-10 17:30N 41°47' W 071°23'4 8.6
2017-Dec-10 17:00N 41°43' W 071°21'4 8.7
2017-Dec-10 16:30N 41°39' W 071°19'5 9.3
2017-Dec-10 16:00N 41°34' W 071°19'42 8.6
2017-Dec-10 11:11N 41°14' W 072°07'211.0
2017-Dec-10 11:01N 41°13' W 072°09'510.8
2017-Dec-10 10:31N 41°12' W 072°16'510.2
2017-Dec-10 10:01N 41°10' W 072°23'5 9.5
2017-Dec-10 09:31N 41°09' W 072°29'4 8.7
2017-Dec-10 09:01N 41°08' W 072°34'55 9.0
2017-Dec-10 02:54N 40°52' W 073°44'4 9.4
2017-Dec-10 02:30N 40°49' W 073°47'4 7.5
2017-Dec-10 01:59N 40°48' W 073°52'3 7.3
2017-Dec-10 01:31N 40°47' W 073°56'3 6.7
2017-Dec-10 01:01N 40°44' W 073°58'3 6.8
2017-Dec-10 00:31N 40°41' W 074°01'4 7.7
2017-Dec-10 00:01N 40°39' W 074°05'4 8.5
2017-Dec-09 23:30N 40°39' W 074°11'3 6.0
2017-Dec-09 23:00N 40°36' W 074°12'3 7.0
2017-Dec-09 22:30N 40°33' W 074°15'1 1.4
2017-Dec-09 22:00N 40°33' W 074°15'0 0.0
2017-Dec-09 21:30N 40°33' W 074°15'0 0.0
2017-Dec-09 21:00N 40°33' W 074°15'0 0.0
2017-Dec-09 20:30N 40°33' W 074°15'0 0.0
2017-Dec-09 17:54N 40°33' W 074°15'0 0.0
2017-Dec-09 17:29N 40°33' W 074°15'0 0.0
2017-Dec-09 17:00N 40°33' W 074°15'0 0.0
2017-Dec-09 15:36N 40°33' W 074°15'0 0.0
2017-Dec-09 15:30N 40°33' W 074°15'0 0.0
2017-Dec-09 14:58N 40°33' W 074°15'0 0.0
2017-Dec-09 14:30N 40°33' W 074°15'0 0.0
2017-Dec-09 13:54N 40°33' W 074°15'0 0.0
2017-Dec-09 13:28N 40°33' W 074°15'0 0.0
2017-Dec-09 11:16N 40°33' W 074°15'0 0.0
2017-Dec-09 10:57N 40°33' W 074°15'0 0.0
2017-Dec-09 09:21N 40°33' W 074°15'0 0.0
2017-Dec-09 09:00N 40°33' W 074°15'0 0.0
2017-Dec-09 08:29N 40°33' W 074°15'0 0.0
2017-Dec-09 08:00N 40°33' W 074°15'0 0.0
2017-Dec-09 06:13N 40°33' W 074°15'0 0.0
2017-Dec-09 06:00N 40°33' W 074°15'0 0.0
2017-Dec-09 05:30N 40°33' W 074°15'0 0.2
2017-Dec-09 05:00N 40°33' W 074°15'2 4.7
2017-Dec-09 04:28N 40°34' W 074°13'2 4.9
2017-Dec-09 04:00N 40°37' W 074°12'3 5.2
2017-Dec-09 03:30N 40°39' W 074°11'5 9.5
2017-Dec-09 03:01N 40°39' W 074°04'2 4.5
2017-Dec-09 02:31N 40°40' W 074°02'0 0.1
2017-Dec-09 02:00N 40°40' W 074°02'0 0.0
2017-Dec-09 01:30N 40°40' W 074°02'0 0.1
2017-Dec-09 01:00N 40°40' W 074°02'0 0.0
2017-Dec-09 00:30N 40°40' W 074°02'0 0.1
2017-Dec-09 00:00N 40°40' W 074°02'0 0.0
2017-Dec-08 23:30N 40°40' W 074°02'0 0.0
2017-Dec-08 23:00N 40°40' W 074°02'0 0.0
2017-Dec-08 22:30N 40°40' W 074°02'0 0.0
2017-Dec-08 22:00N 40°40' W 074°02'0 0.0
2017-Dec-08 21:27N 40°40' W 074°02'0 0.0
2017-Dec-08 21:00N 40°40' W 074°02'0 0.0
2017-Dec-08 20:30N 40°40' W 074°02'0 0.5
2017-Dec-08 20:00N 40°40' W 074°02'4 8.8
2017-Dec-08 19:30N 40°38' W 074°08'0 0.0
2017-Dec-08 19:00N 40°38' W 074°08'0 0.0
2017-Dec-08 18:30N 40°38' W 074°08'1 2.5
2017-Dec-08 18:00N 40°39' W 074°06'4 6.7
2017-Dec-08 17:28N 40°40' W 074°02'0 0.0
2017-Dec-08 16:55N 40°40' W 074°02'0 0.0
2017-Dec-08 16:28N 40°40' W 074°02'0 0.9
2017-Dec-08 16:00N 40°40' W 074°01'0 0.6
2017-Dec-08 15:30N 40°40' W 074°01'0 0.1
2017-Dec-08 14:59N 40°40' W 074°01'0 0.0
2017-Dec-08 14:29N 40°40' W 074°01'0 0.0
2017-Dec-08 13:59N 40°40' W 074°01'0 0.0
2017-Dec-08 13:29N 40°40' W 074°01'1 1.2
2017-Dec-08 12:58N 40°40' W 074°02'0 0.1
2017-Dec-08 12:28N 40°40' W 074°02'0 0.1
2017-Dec-08 11:58N 40°40' W 074°02'0 0.1
2017-Dec-08 11:28N 40°40' W 074°02'0 0.0
2017-Dec-08 10:58N 40°40' W 074°02'0 0.0
2017-Dec-08 10:28N 40°40' W 074°02'0 0.0
2017-Dec-08 09:58N 40°40' W 074°02'0 0.0
2017-Dec-08 09:28N 40°40' W 074°02'0 0.0
2017-Dec-08 08:58N 40°40' W 074°02'0 0.0
2017-Dec-08 08:28N 40°40' W 074°02'0 0.0
2017-Dec-08 07:58N 40°40' W 074°02'0 0.0
2017-Dec-08 07:28N 40°40' W 074°02'0 0.1
2017-Dec-08 06:58N 40°40' W 074°02'0 0.3
2017-Dec-08 06:28N 40°40' W 074°02'1 1.4
2017-Dec-08 06:00N 40°41' W 074°01'4 7.8
2017-Dec-08 05:30N 40°44' W 073°58'3 6.7
2017-Dec-08 04:59N 40°47' W 073°56'3 6.9
2017-Dec-08 04:30N 40°48' W 073°52'4 7.4
2017-Dec-08 04:01N 40°49' W 073°47'5 9.2
2017-Dec-08 03:30N 40°53' W 073°43'43 1.9
2017-Dec-07 04:20N 41°12' W 072°52'6 0.8
2017-Dec-06 21:24N 41°11' W 072°45'3 8.0
2017-Dec-06 21:00N 41°11' W 072°40'  

Dump ship's entire track history